createdAt,value
2023-02-22T00:01:03.000Z,82.95
2023-02-22T00:03:35.125Z,85.68
2023-02-22T00:06:05.206Z,90.07
2023-02-22T00:08:34.916Z,89.68
2023-02-22T00:11:04.851Z,98.85
2023-02-22T00:13:52.278Z,96.50
2023-02-22T00:16:53.317Z,98.93
2023-02-22T00:19:54.373Z,104.05
2023-02-22T00:22:35.034Z,107.80
2023-02-22T00:25:02.293Z,112.40
2023-02-22T00:27:29.249Z,110.93
2023-02-22T00:29:56.632Z,126.88
2023-02-22T00:32:24.563Z,123.50
2023-02-22T00:34:53.763Z,124.47
2023-02-22T00:37:21.315Z,127.75
2023-02-22T00:39:49.023Z,129.93
2023-02-22T00:42:18.072Z,132.02
2023-02-22T00:44:45.402Z,129.77
2023-02-22T00:47:12.920Z,141.60
2023-02-22T00:50:01.306Z,132.57
2023-02-22T00:53:03.320Z,142.93
2023-02-22T00:56:00.922Z,138.10
2023-02-22T00:58:27.828Z,137.38
2023-02-22T01:00:55.527Z,140.55
2023-02-22T01:03:22.654Z,135.68
2023-02-22T01:05:49.986Z,136.70
2023-02-22T01:08:17.833Z,139.55
2023-02-22T01:11:05.330Z,142.23
2023-02-22T01:14:06.363Z,142.40
2023-02-22T01:16:47.016Z,139.68
2023-02-22T01:19:35.371Z,137.77
2023-02-22T01:22:15.950Z,145.88
2023-02-22T01:24:43.024Z,145.90
2023-02-22T01:27:31.348Z,142.85
2023-02-22T01:30:14.221Z,138.05
2023-02-22T01:32:42.601Z,140.90
2023-02-22T01:35:14.162Z,142.27
2023-02-22T01:37:41.548Z,137.10
2023-02-22T01:40:10.921Z,137.60
2023-02-22T01:42:37.871Z,138.10
2023-02-22T01:45:47.185Z,141.77
2023-02-22T01:48:44.908Z,137.57
2023-02-22T01:51:25.670Z,138.32
2023-02-22T01:53:58.455Z,141.38
2023-02-22T01:56:29.015Z,137.18
2023-02-22T01:59:08.129Z,140.32
2023-02-22T02:01:40.336Z,141.57
2023-02-22T02:04:12.172Z,140.73
2023-02-22T02:06:40.057Z,139.82
2023-02-22T02:09:15.553Z,136.30
2023-02-22T02:12:03.368Z,144.18
2023-02-22T02:15:04.371Z,137.50
2023-02-22T02:18:08.365Z,139.18
2023-02-22T02:21:24.256Z,138.88
2023-02-22T02:24:28.922Z,140.32
2023-02-22T02:27:11.513Z,140.10
2023-02-22T02:29:50.557Z,139.75
2023-02-22T02:32:50.661Z,133.77
2023-02-22T02:35:26.773Z,139.02
2023-02-22T02:38:01.587Z,142.57
2023-02-22T02:40:53.365Z,149.18
2023-02-22T02:43:51.976Z,137.40
2023-02-22T02:46:46.360Z,144.20
2023-02-22T02:51:49.395Z,134.27
2023-02-22T02:54:17.331Z,143.30
2023-02-22T02:56:46.063Z,135.85
2023-02-22T02:59:39.524Z,136.23
2023-02-22T03:02:18.416Z,141.25
2023-02-22T03:05:14.940Z,139.98
2023-02-22T03:07:54.076Z,145.48
2023-02-22T03:11:05.389Z,141.02
2023-02-22T03:14:28.409Z,134.15
2023-02-22T03:17:36.403Z,143.70
2023-02-22T03:20:31.640Z,133.10
2023-02-22T03:23:29.024Z,136.13
2023-02-22T03:26:04.795Z,141.02
2023-02-22T03:28:35.750Z,136.82
2023-02-22T03:31:13.000Z,142.00
2023-02-22T03:33:55.575Z,139.77
2023-02-22T03:36:29.112Z,137.10
2023-02-22T03:38:59.630Z,136.68
2023-02-22T03:41:28.560Z,140.88
2023-02-22T03:44:25.436Z,144.70
2023-02-22T03:47:12.267Z,141.63
2023-02-22T03:49:52.434Z,142.23
2023-02-22T03:52:23.460Z,143.88
2023-02-22T03:54:55.423Z,137.50
2023-02-22T03:57:28.385Z,142.55
2023-02-22T04:00:07.810Z,142.57
2023-02-22T04:03:10.454Z,141.98
2023-02-22T04:06:04.538Z,143.70
2023-02-22T04:08:45.217Z,141.85
2023-02-22T04:11:12.321Z,143.43
2023-02-22T04:14:01.441Z,140.63
2023-02-22T04:16:42.150Z,141.30
2023-02-22T04:19:30.433Z,146.10
2023-02-22T04:22:32.432Z,143.07
2023-02-22T04:25:14.887Z,146.68
2023-02-22T04:27:41.887Z,144.25
2023-02-22T04:30:10.272Z,149.82
2023-02-22T04:32:39.154Z,144.70
2023-02-22T04:35:07.197Z,142.60
2023-02-22T04:37:34.902Z,141.60
2023-02-22T04:40:08.879Z,143.52
2023-02-22T04:42:37.447Z,141.00
2023-02-22T04:45:08.014Z,148.27
2023-02-22T04:47:36.984Z,140.63
2023-02-22T04:50:06.626Z,141.80
2023-02-22T04:52:33.892Z,141.32
2023-02-22T04:55:21.489Z,141.85
2023-02-22T04:58:02.080Z,139.88
2023-02-22T05:00:49.474Z,146.05
2023-02-22T05:03:53.469Z,142.85
2023-02-22T05:06:34.371Z,140.82
2023-02-22T05:09:01.534Z,145.77
2023-02-22T05:11:28.465Z,143.48
2023-02-22T05:14:15.566Z,144.95
2023-02-22T05:17:16.462Z,143.13
2023-02-22T05:20:08.654Z,146.40
2023-02-22T05:22:36.319Z,148.38
2023-02-22T05:25:03.430Z,139.70
2023-02-22T05:27:30.412Z,143.02
2023-02-22T05:29:57.415Z,139.75
2023-02-22T05:32:24.712Z,146.50
2023-02-22T05:34:51.692Z,149.15
2023-02-22T05:37:18.701Z,148.23
2023-02-22T05:39:46.581Z,148.63
2023-02-22T05:42:13.542Z,141.65
2023-02-22T05:44:40.614Z,137.68
2023-02-22T05:47:07.674Z,144.45
2023-02-22T05:49:34.663Z,147.52
2023-02-22T05:52:21.483Z,146.05
2023-02-22T05:55:24.629Z,138.70
2023-02-22T05:58:25.137Z,144.00
2023-02-22T06:01:12.473Z,134.32
2023-02-22T06:04:13.488Z,140.88
2023-02-22T06:07:14.500Z,141.60
2023-02-22T06:12:39.721Z,131.57
2023-02-22T06:15:41.535Z,137.95
2023-02-22T06:18:42.553Z,141.35
2023-02-22T06:21:23.112Z,145.05
2023-02-22T06:23:50.273Z,141.95
2023-02-22T06:26:18.162Z,137.70
2023-02-22T06:28:48.182Z,138.55
2023-02-22T06:31:35.550Z,136.50
2023-02-22T06:34:16.386Z,148.25
2023-02-22T06:36:43.701Z,136.18
2023-02-22T06:39:11.230Z,139.55
2023-02-22T06:41:38.739Z,143.40
2023-02-22T06:44:06.275Z,139.55
2023-02-22T06:46:34.157Z,137.40
2023-02-22T06:49:01.244Z,140.45
2023-02-22T06:51:51.527Z,135.63
2023-02-22T06:54:52.550Z,135.25
2023-02-22T06:57:53.527Z,134.93
2023-02-22T07:00:54.664Z,139.32
2023-02-22T07:03:35.988Z,137.32
2023-02-22T07:06:04.392Z,134.60
2023-02-22T07:08:31.382Z,135.98
2023-02-22T07:11:18.912Z,136.90
2023-02-22T07:13:59.156Z,132.70
2023-02-22T07:16:26.051Z,136.15
2023-02-22T07:19:13.547Z,135.15
2023-02-22T07:22:14.536Z,132.20
2023-02-22T07:25:10.050Z,138.90
2023-02-22T07:27:42.020Z,130.10
2023-02-22T07:30:25.473Z,135.65
2023-02-22T07:32:54.771Z,134.70
2023-02-22T07:35:25.466Z,134.27
2023-02-22T07:37:55.762Z,133.63
2023-02-22T07:40:24.648Z,135.73
2023-02-22T07:42:55.693Z,134.63
2023-02-22T07:45:24.507Z,131.52
2023-02-22T07:47:51.651Z,131.82
2023-02-22T07:50:20.619Z,132.05
2023-02-22T07:52:49.787Z,133.93
2023-02-22T07:55:39.546Z,135.18
2023-02-22T07:58:42.567Z,132.05
2023-02-22T08:01:43.514Z,128.65
2023-02-22T08:04:45.556Z,135.73
2023-02-22T08:07:31.777Z,131.38
2023-02-22T08:10:20.577Z,138.30
2023-02-22T08:13:21.576Z,132.32
2023-02-22T08:16:02.103Z,129.20
2023-02-22T08:18:49.559Z,130.60
2023-02-22T08:21:30.510Z,127.32
2023-02-22T08:23:57.368Z,134.35
2023-02-22T08:26:25.480Z,133.85
2023-02-22T08:28:52.483Z,129.82
2023-02-22T08:31:19.707Z,130.85
2023-02-22T08:33:50.077Z,136.60
2023-02-22T08:36:18.662Z,129.23
2023-02-22T08:39:05.578Z,131.10
2023-02-22T08:41:46.132Z,128.85
2023-02-22T08:44:14.198Z,131.30
2023-02-22T08:49:42.611Z,133.75
2023-02-22T08:52:43.605Z,127.93
2023-02-22T08:55:26.223Z,120.95
2023-02-22T08:57:53.279Z,130.05
2023-02-22T09:00:24.774Z,131.73
2023-02-22T09:03:04.673Z,130.73
2023-02-22T09:06:05.600Z,130.43
2023-02-22T09:08:46.254Z,127.65
2023-02-22T09:11:13.119Z,129.32
2023-02-22T09:13:40.082Z,135.10
2023-02-22T09:16:07.338Z,136.85
2023-02-22T09:18:54.604Z,134.43
2023-02-22T09:21:55.638Z,132.57
2023-02-22T09:24:36.221Z,127.47
2023-02-22T09:27:04.617Z,130.38
2023-02-22T09:29:31.498Z,132.57
2023-02-22T09:31:58.590Z,124.43
2023-02-22T09:34:29.807Z,134.75
2023-02-22T09:36:57.928Z,131.77
2023-02-22T09:39:25.385Z,132.68
2023-02-22T09:41:58.799Z,129.10
2023-02-22T09:44:36.289Z,134.65
2023-02-22T09:47:04.755Z,133.57
2023-02-22T09:49:39.113Z,135.55
2023-02-22T09:52:40.608Z,134.57
2023-02-22T09:58:41.465Z,127.32
2023-02-22T10:01:33.609Z,137.00
2023-02-22T10:04:52.625Z,127.03
2023-02-22T10:08:00.613Z,129.32
2023-02-22T10:10:52.630Z,134.73
2023-02-22T10:13:29.783Z,122.50
2023-02-22T10:16:06.285Z,133.10
2023-02-22T10:19:23.635Z,126.55
2023-02-22T10:22:13.151Z,124.00
2023-02-22T10:24:40.057Z,123.30
2023-02-22T10:27:16.391Z,135.80
2023-02-22T10:29:52.891Z,129.48
2023-02-22T10:32:28.446Z,132.25
2023-02-22T10:34:58.247Z,119.80
2023-02-22T10:37:47.676Z,136.18
2023-02-22T10:40:34.085Z,134.98
2023-02-22T10:43:04.133Z,137.48
2023-02-22T10:45:34.420Z,153.40
2023-02-22T10:48:08.571Z,133.25
2023-02-22T10:50:40.922Z,131.80
2023-02-22T10:53:21.827Z,129.07
2023-02-22T10:56:06.334Z,132.75
2023-02-22T10:58:51.780Z,133.90
2023-02-22T11:01:48.740Z,128.48
2023-02-22T11:05:19.696Z,127.47
2023-02-22T11:08:22.518Z,126.68
2023-02-22T11:10:57.822Z,129.98
2023-02-22T11:13:27.770Z,128.77
2023-02-22T11:15:58.441Z,130.75
2023-02-22T11:18:48.694Z,130.68
2023-02-22T11:21:32.364Z,127.40
2023-02-22T11:24:08.539Z,130.25
2023-02-22T11:27:08.489Z,132.32
2023-02-22T11:29:38.000Z,129.82
2023-02-22T11:32:15.179Z,133.55
2023-02-22T11:34:43.193Z,133.85
2023-02-22T11:37:39.680Z,127.57
2023-02-22T11:40:41.802Z,129.68
2023-02-22T11:43:22.470Z,131.70
2023-02-22T11:46:02.826Z,129.43
2023-02-22T11:48:34.946Z,129.25
2023-02-22T11:51:24.442Z,133.63
2023-02-22T11:54:53.302Z,130.30
2023-02-22T11:57:32.325Z,126.57
2023-02-22T12:00:24.884Z,129.07
2023-02-22T12:03:56.287Z,128.05
2023-02-22T12:07:05.522Z,129.03
2023-02-22T12:09:47.997Z,129.98
2023-02-22T12:12:40.776Z,123.57
2023-02-22T12:15:28.675Z,123.30
2023-02-22T12:18:21.827Z,131.70
2023-02-22T12:21:28.894Z,126.43
2023-02-22T12:24:27.765Z,126.38
2023-02-22T12:27:15.214Z,128.63
2023-02-22T12:29:51.330Z,129.65
2023-02-22T12:32:42.734Z,125.13
2023-02-22T12:35:42.112Z,127.38
2023-02-22T12:38:38.504Z,129.35
2023-02-22T12:41:06.159Z,128.23
2023-02-22T12:43:56.245Z,125.78
2023-02-22T12:46:44.190Z,128.90
2023-02-22T12:49:31.749Z,131.27
2023-02-22T12:52:20.898Z,130.18
2023-02-22T12:55:01.201Z,132.02
2023-02-22T12:57:47.775Z,131.02
2023-02-22T13:00:26.508Z,130.25
2023-02-22T13:06:54.725Z,126.47
2023-02-22T13:09:47.575Z,128.27
2023-02-22T13:12:39.382Z,125.80
2023-02-22T13:15:18.509Z,129.90
2023-02-22T13:18:28.787Z,128.38
2023-02-22T13:21:19.551Z,132.45
2023-02-22T13:24:05.534Z,127.88
2023-02-22T13:26:43.680Z,127.47
2023-02-22T13:29:17.826Z,126.05
2023-02-22T13:32:10.014Z,133.85
2023-02-22T13:34:47.019Z,127.22
2023-02-22T13:37:35.665Z,128.65
2023-02-22T13:41:06.735Z,126.90
2023-02-22T13:44:45.769Z,126.95
2023-02-22T13:48:04.734Z,127.22
2023-02-22T13:50:45.255Z,121.18
2023-02-22T13:53:17.123Z,125.57
2023-02-22T13:55:49.577Z,121.65
2023-02-22T13:58:16.784Z,122.07
2023-02-22T14:00:50.987Z,116.10
2023-02-22T14:03:54.762Z,111.63
2023-02-22T14:06:41.636Z,113.18
2023-02-22T14:09:45.478Z,117.93
2023-02-22T14:12:30.916Z,117.80
2023-02-22T14:15:22.047Z,116.18
2023-02-22T14:18:15.941Z,113.28
2023-02-22T14:21:09.498Z,113.85
2023-02-22T14:24:02.762Z,112.80
2023-02-22T14:26:59.337Z,113.97
2023-02-22T14:29:26.894Z,114.60
2023-02-22T14:32:06.455Z,116.30
2023-02-22T14:34:49.493Z,115.72
2023-02-22T14:37:18.518Z,116.88
2023-02-22T14:39:57.981Z,114.90
2023-02-22T14:42:28.332Z,115.78
2023-02-22T14:45:23.802Z,118.35
2023-02-22T14:48:33.791Z,114.22
2023-02-22T14:52:16.865Z,118.45
2023-02-22T14:55:23.827Z,112.10
2023-02-22T14:58:31.967Z,112.03
2023-02-22T15:00:58.945Z,116.80
2023-02-22T15:03:56.047Z,115.95
2023-02-22T15:06:42.658Z,109.38
2023-02-22T15:09:29.612Z,115.50
2023-02-22T15:12:19.782Z,114.53
2023-02-22T15:15:28.832Z,115.78
2023-02-22T15:18:38.821Z,114.40
2023-02-22T15:21:41.809Z,108.35
2023-02-22T15:24:25.519Z,118.22
2023-02-22T15:27:01.577Z,120.15
2023-02-22T15:29:36.437Z,114.88
2023-02-22T15:32:19.267Z,113.40
2023-02-22T15:34:46.320Z,108.75
2023-02-22T15:37:25.543Z,117.13
2023-02-22T15:39:59.770Z,113.88
2023-02-22T15:42:46.860Z,112.30
2023-02-22T15:45:48.815Z,116.05
2023-02-22T15:48:31.733Z,113.10
2023-02-22T15:51:04.753Z,119.55
2023-02-22T15:53:40.184Z,112.15
2023-02-22T15:56:12.696Z,115.00
2023-02-22T15:59:01.839Z,114.78
2023-02-22T16:02:04.926Z,110.82
2023-02-22T16:04:59.765Z,113.22
2023-02-22T16:07:46.948Z,113.15
2023-02-22T16:10:26.213Z,112.00
2023-02-22T16:13:32.061Z,111.53
2023-02-22T16:16:02.693Z,108.75
2023-02-22T16:18:51.851Z,108.90
2023-02-22T16:22:19.848Z,114.63
2023-02-22T16:25:18.788Z,113.10
2023-02-22T16:28:12.854Z,112.72
2023-02-22T16:30:58.370Z,117.03
2023-02-22T16:33:46.852Z,112.20
2023-02-22T16:36:43.980Z,114.00
2023-02-22T16:39:19.046Z,116.33
2023-02-22T16:42:05.851Z,116.50
2023-02-22T16:45:06.843Z,125.53
2023-02-22T16:48:10.858Z,120.05
2023-02-22T16:50:54.472Z,115.85
2023-02-22T16:53:24.095Z,118.70
2023-02-22T16:55:57.780Z,119.40
2023-02-22T16:58:29.338Z,120.88
2023-02-22T17:00:57.485Z,117.72
2023-02-22T17:03:26.021Z,122.53
2023-02-22T17:05:53.165Z,122.82
2023-02-22T17:08:20.097Z,119.53
2023-02-22T17:10:47.492Z,118.60
2023-02-22T17:13:23.020Z,119.68
2023-02-22T17:16:11.939Z,117.38
2023-02-22T17:19:12.881Z,111.07
2023-02-22T17:22:15.855Z,111.63
2023-02-22T17:25:19.236Z,115.65
2023-02-22T17:28:05.903Z,115.90
2023-02-22T17:31:09.210Z,119.90
2023-02-22T17:34:13.886Z,116.07
2023-02-22T17:39:55.957Z,111.35
2023-02-22T17:42:36.048Z,119.40
2023-02-22T17:45:17.304Z,114.78
2023-02-22T17:47:44.548Z,121.00
2023-02-22T17:50:12.707Z,117.55
2023-02-22T17:52:39.594Z,115.68
2023-02-22T17:55:07.254Z,119.43
2023-02-22T17:57:34.806Z,116.22
2023-02-22T18:00:12.625Z,118.65
2023-02-22T18:02:43.853Z,120.13
2023-02-22T18:05:32.891Z,121.70
2023-02-22T18:08:35.323Z,115.18
2023-02-22T18:11:15.853Z,118.95
2023-02-22T18:13:43.042Z,115.97
2023-02-22T18:16:12.614Z,123.60
2023-02-22T18:19:00.023Z,122.47
2023-02-22T18:21:40.453Z,117.32
2023-02-22T18:24:27.922Z,124.07
2023-02-22T18:27:31.337Z,111.00
2023-02-22T18:30:33.018Z,115.07
2023-02-22T18:33:14.324Z,118.70
2023-02-22T18:35:49.975Z,124.07
2023-02-22T18:38:23.282Z,126.70
2023-02-22T18:41:18.912Z,124.90
2023-02-22T18:44:02.117Z,125.43
2023-02-22T18:46:30.533Z,128.57
2023-02-22T18:48:59.467Z,126.03
2023-02-22T18:51:28.816Z,128.40
2023-02-22T18:54:15.969Z,122.75
2023-02-22T18:57:18.977Z,120.55
2023-02-22T18:59:59.562Z,122.75
2023-02-22T19:02:26.688Z,125.50
2023-02-22T19:04:54.283Z,127.75
2023-02-22T19:07:23.370Z,120.25
2023-02-22T19:09:51.793Z,122.03
2023-02-22T19:12:19.858Z,130.98
2023-02-22T19:14:46.690Z,115.65
2023-02-22T19:17:34.055Z,123.70
2023-02-22T19:23:42.564Z,123.35
2023-02-22T19:26:43.006Z,126.00
2023-02-22T19:29:49.055Z,121.20
2023-02-22T19:32:20.483Z,127.85
2023-02-22T19:34:47.500Z,133.63
2023-02-22T19:37:15.451Z,126.75
2023-02-22T19:39:42.589Z,128.45
2023-02-22T19:42:30.049Z,135.82
2023-02-22T19:45:10.546Z,128.30
2023-02-22T19:47:39.895Z,127.78
2023-02-22T19:50:08.224Z,132.27
2023-02-22T19:52:55.093Z,132.50
2023-02-22T19:55:56.479Z,127.55
2023-02-22T19:58:48.597Z,125.28
2023-02-22T20:01:24.681Z,134.23
2023-02-22T20:03:54.591Z,128.23
2023-02-22T20:06:26.552Z,127.53
2023-02-22T20:08:54.863Z,122.80
2023-02-22T20:11:23.737Z,120.95
2023-02-22T20:13:51.159Z,126.00
2023-02-22T20:16:18.387Z,125.10
2023-02-22T20:19:06.879Z,124.88
2023-02-22T20:21:48.625Z,126.60
2023-02-22T20:24:18.878Z,126.30
2023-02-22T20:26:47.766Z,127.40
2023-02-22T20:29:38.289Z,124.07
2023-02-22T20:32:39.214Z,119.32
2023-02-22T20:35:20.053Z,123.55
2023-02-22T20:37:47.204Z,124.03
2023-02-22T20:40:16.018Z,121.22
2023-02-22T20:43:03.012Z,125.53
2023-02-22T20:45:43.879Z,127.80
2023-02-22T20:48:12.526Z,131.38
2023-02-22T20:50:42.630Z,132.57
2023-02-22T20:53:10.022Z,128.32
2023-02-22T20:55:39.464Z,123.20
2023-02-22T20:58:27.449Z,128.07
2023-02-22T21:01:12.842Z,127.28
2023-02-22T21:03:44.071Z,134.10
2023-02-22T21:06:15.593Z,126.80
2023-02-22T21:08:44.940Z,125.93
2023-02-22T21:11:14.843Z,122.80
2023-02-22T21:13:42.708Z,121.13
2023-02-22T21:16:17.336Z,126.82
2023-02-22T21:19:11.206Z,126.20
2023-02-22T21:22:01.665Z,118.13
2023-02-22T21:24:29.748Z,124.18
2023-02-22T21:27:00.716Z,117.72
2023-02-22T21:29:51.447Z,124.13
2023-02-22T21:32:53.048Z,120.88
2023-02-22T21:35:54.152Z,129.35
2023-02-22T21:38:35.339Z,125.97
2023-02-22T21:41:03.503Z,124.53
2023-02-22T21:43:30.809Z,129.73
2023-02-22T21:46:03.303Z,124.55
2023-02-22T21:48:30.947Z,125.22
2023-02-22T21:50:58.500Z,125.68
2023-02-22T21:53:29.314Z,130.38
2023-02-22T21:56:04.530Z,126.40
2023-02-22T21:58:31.945Z,129.50
2023-02-22T22:01:06.004Z,126.63
2023-02-22T22:06:34.752Z,123.53
2023-02-22T22:09:04.712Z,125.30
2023-02-22T22:11:31.666Z,130.93
2023-02-22T22:14:20.432Z,130.27
2023-02-22T22:17:25.086Z,130.50
2023-02-22T22:20:12.279Z,131.60
2023-02-22T22:22:41.456Z,129.13
2023-02-22T22:25:11.820Z,131.55
2023-02-22T22:27:52.046Z,129.65
2023-02-22T22:30:37.153Z,130.83
2023-02-22T22:33:11.327Z,132.95
2023-02-22T22:38:05.593Z,128.07
2023-02-22T22:40:34.366Z,128.77
2023-02-22T22:43:01.484Z,124.75
2023-02-22T22:45:28.441Z,137.65
2023-02-22T22:47:55.503Z,135.65
2023-02-22T22:50:26.488Z,129.60
2023-02-22T22:52:55.733Z,129.60
2023-02-22T22:55:26.459Z,131.13
2023-02-22T22:57:53.405Z,130.05
2023-02-22T23:00:26.614Z,129.45
2023-02-22T23:03:16.198Z,128.05
2023-02-22T23:06:20.073Z,125.40
2023-02-22T23:09:12.274Z,134.15
2023-02-22T23:11:46.438Z,130.15
2023-02-22T23:14:33.202Z,132.57
2023-02-22T23:17:37.085Z,131.40
2023-02-22T23:20:38.145Z,140.57
2023-02-22T23:23:35.075Z,130.90
2023-02-22T23:26:18.502Z,124.75
2023-02-22T23:28:47.786Z,127.35
2023-02-22T23:31:17.574Z,134.90
2023-02-22T23:33:48.302Z,134.63
2023-02-22T23:36:17.096Z,135.82
2023-02-22T23:38:45.014Z,130.75
2023-02-22T23:41:17.290Z,128.95
2023-02-22T23:43:45.691Z,129.43
2023-02-22T23:46:20.675Z,133.57
2023-02-22T23:48:54.918Z,133.82
2023-02-22T23:51:25.852Z,131.13
2023-02-22T23:53:57.076Z,123.70
2023-02-22T23:56:27.114Z,129.55
2023-02-22T23:58:57.334Z,127.57
